Dilbeek, Belgium
Current Conditions -  °F | °C
As of 1:50 AM on Tuesday 25 Nov 2014 (Local Time) from EBBR Reporting Station
Clear Clear  
Wind Chill: 34°   Ceiling: Unl
Heat Index: 34°   Visibility: 6mi
Dew Point: 32°   Wind: 1mph
Humidity: 93%   Direction: NA
Pressure: 30.3"   Gusts: NA
Location:  50.85°N, 4.26°E
Report Text: EBBR 250050Z VRB01KT CAVOK 01/M00 Q1026 NOSIG
Loading
Personal Weather Stations






























Interactive Weather Map New forecast layout! Learn more

10-Day Weather Forecast

Advertisements
Track Severe Weather on mobile